In Rescue
 
Open Full Screen Window  High Contrast Mode
Wind Gusting 00 knots
09
October 25, 2021 3:12 PM CDT
Weather Information
Wind Direction
  120 °
Wind Speed
  09 kt (10 mph)
Wind Gust
  00 kt (0 mph)
Altimeter
30.12 in
Visibility
10 SM
Temperature
09° C
48° F
Dewpoint
-01° C
30° F
Humidity
50%
1hr Rain Fall
00.00 in.
24hr Rain Fall
00.00 in.
Sky Condition
Clear
VFR

METAR KADC 252012Z AUTO 12009KT 10SM CLR 09/M01 A3012 RMK AO2 TSNO

FAA Disclaimer: The data displayed is for advisory purposes only and is not to be used for flight planning or operations.